Time;durP1;ratioP1;P1;durP2;ratioP2;P2;SDS_P1;SDS_P2;PMS_P1;PMS_P2;Temp;Humidity;BMP_temperature;BMP_pressure;BME280_temperature;BME280_humidity;BME280_pressure;Samples;Min_cycle;Max_cycle;Signal;HPM_P1;HPM_P2
2020/12/31 00:01:31;;;;;;;24.53;12.90;;;3.90;99.90;;;;;;5046765;28;20692;-60
2020/12/31 00:03:57;;;;;;;22.00;11.90;;;3.90;99.90;;;;;;5043948;28;20199;-60
2020/12/31 00:06:24;;;;;;;21.50;10.80;;;4.00;99.90;;;;;;5046928;28;20199;-61
2020/12/31 00:08:50;;;;;;;23.20;11.80;;;4.00;99.90;;;;;;5051309;28;20219;-61
2020/12/31 00:11:16;;;;;;;21.00;11.60;;;4.00;99.90;;;;;;5055078;28;20290;-60
2020/12/31 00:13:43;;;;;;;27.20;13.80;;;3.90;99.90;;;;;;5053474;28;20211;-61
2020/12/31 00:16:10;;;;;;;22.70;11.47;;;3.80;99.90;;;;;;5053322;28;20682;-61
2020/12/31 00:18:36;;;;;;;22.07;12.60;;;3.60;99.90;;;;;;5050169;28;20219;-61
2020/12/31 00:21:03;;;;;;;24.53;11.87;;;3.30;99.90;;;;;;5046257;28;20210;-61
2020/12/31 00:23:29;;;;;;;19.33;11.23;;;3.20;99.90;;;;;;5049003;28;20200;-61
2020/12/31 00:25:56;;;;;;;21.60;12.33;;;3.20;99.90;;;;;;5055702;28;20207;-61
2020/12/31 00:28:22;;;;;;;23.00;13.10;;;3.00;99.90;;;;;;5054659;28;20218;-61
2020/12/31 00:30:49;;;;;;;24.77;13.47;;;2.90;99.90;;;;;;5054108;28;20248;-62
2020/12/31 00:33:17;;;;;;;22.77;12.80;;;3.00;99.90;;;;;;5047481;28;20227;-59
2020/12/31 00:35:44;;;;;;;21.63;12.30;;;3.00;99.90;;;;;;5050542;28;20570;-61
2020/12/31 00:38:11;;;;;;;22.67;11.93;;;2.80;99.90;;;;;;5046742;28;20220;-60
2020/12/31 00:40:37;;;;;;;21.93;11.87;;;2.70;99.90;;;;;;5049427;28;20202;-61
2020/12/31 00:43:04;;;;;;;21.20;12.07;;;2.80;99.90;;;;;;5053656;28;20244;-61
2020/12/31 00:45:30;;;;;;;21.87;11.67;;;2.80;99.90;;;;;;5049800;28;20205;-60
2020/12/31 00:47:56;;;;;;;22.57;11.87;;;2.70;99.90;;;;;;5052639;28;20231;-61
2020/12/31 00:50:23;;;;;;;23.57;12.23;;;2.80;99.90;;;;;;5059665;28;20760;-61
2020/12/31 00:52:50;;;;;;;22.00;10.50;;;3.00;99.90;;;;;;5057778;28;20205;-61
2020/12/31 00:55:16;;;;;;;19.80;10.90;;;3.10;99.90;;;;;;5048074;28;20207;-61
2020/12/31 00:57:43;;;;;;;20.37;10.47;;;3.00;99.90;;;;;;5048846;28;20264;-61
2020/12/31 01:00:11;;;;;;;19.47;10.77;;;3.00;99.90;;;;;;5049511;28;20203;-59
2020/12/31 01:02:37;;;;;;;17.87;10.00;;;3.10;99.90;;;;;;5049930;28;20252;-58
2020/12/31 01:05:07;;;;;;;18.23;9.70;;;3.10;99.90;;;;;;5044108;28;20224;-61
2020/12/31 01:07:34;;;;;;;18.33;10.00;;;3.10;99.90;;;;;;5061040;28;20237;-60
2020/12/31 01:10:00;;;;;;;18.83;10.03;;;3.20;99.90;;;;;;5048953;28;20530;-60
2020/12/31 01:12:28;;;;;;;18.30;9.43;;;3.30;99.90;;;;;;5050484;28;20207;-61
2020/12/31 01:14:55;;;;;;;17.57;9.10;;;3.40;99.90;;;;;;5050074;28;20223;-61
2020/12/31 01:17:21;;;;;;;17.90;9.60;;;3.40;99.90;;;;;;5049886;28;20227;-61
2020/12/31 01:19:48;;;;;;;18.83;9.83;;;3.30;99.90;;;;;;5050203;28;20223;-61
2020/12/31 01:22:16;;;;;;;15.03;9.23;;;3.30;99.90;;;;;;5050256;28;20203;-60
2020/12/31 01:24:43;;;;;;;15.07;8.27;;;3.30;99.90;;;;;;5050626;28;20779;-61
2020/12/31 01:27:10;;;;;;;17.40;9.67;;;3.30;99.90;;;;;;5050720;28;20201;-60
2020/12/31 01:29:36;;;;;;;15.43;9.30;;;3.10;99.90;;;;;;5053856;28;20206;-61
2020/12/31 01:32:02;;;;;;;19.70;9.33;;;3.10;99.90;;;;;;5054252;28;20199;-61
2020/12/31 01:34:29;;;;;;;16.13;9.13;;;3.10;99.90;;;;;;5052566;28;20225;-61
2020/12/31 01:36:55;;;;;;;14.77;8.30;;;3.10;99.90;;;;;;5064321;28;20209;-60
2020/12/31 01:39:22;;;;;;;16.23;9.30;;;3.20;99.90;;;;;;5051745;28;20209;-59
2020/12/31 01:41:50;;;;;;;15.23;9.07;;;3.10;99.90;;;;;;5053727;28;20199;-57
2020/12/31 01:44:16;;;;;;;16.23;8.90;;;3.20;99.90;;;;;;5053267;28;20637;-60
2020/12/31 01:46:45;;;;;;;17.00;9.30;;;3.00;99.90;;;;;;5054103;28;20205;-60
2020/12/31 01:49:13;;;;;;;18.07;9.23;;;3.10;99.90;;;;;;5053075;28;20230;-61
2020/12/31 01:51:41;;;;;;;16.20;8.27;;;3.10;99.90;;;;;;5053656;28;20199;-61
2020/12/31 01:54:08;;;;;;;15.30;8.63;;;2.90;99.90;;;;;;5053792;28;20238;-61
2020/12/31 01:56:36;;;;;;;14.97;8.70;;;2.90;99.90;;;;;;5053637;28;20210;-61
2020/12/31 01:59:03;;;;;;;15.70;8.23;;;2.80;99.90;;;;;;5053246;28;20766;-58
2020/12/31 02:01:30;;;;;;;17.57;9.17;;;2.90;99.90;;;;;;5051336;28;20207;-61
2020/12/31 02:03:58;;;;;;;17.77;9.00;;;3.00;99.90;;;;;;5059482;28;20195;-60
2020/12/31 02:06:26;;;;;;;14.27;8.13;;;2.90;99.90;;;;;;5053760;28;20210;-61
2020/12/31 02:08:53;;;;;;;14.93;8.30;;;2.80;99.90;;;;;;5053706;28;20222;-61
2020/12/31 02:11:21;;;;;;;15.77;8.40;;;2.70;99.90;;;;;;5053353;28;20210;-61
2020/12/31 02:13:48;;;;;;;14.07;8.33;;;2.60;99.90;;;;;;5052780;28;20588;-61
2020/12/31 02:16:17;;;;;;;15.47;8.83;;;2.60;99.90;;;;;;5053410;28;20210;-60
2020/12/31 02:18:55;;;;;;;15.20;8.37;;;2.50;99.90;;;;;;5053161;28;20314;-60
2020/12/31 02:21:23;;;;;;;15.07;8.87;;;2.50;99.90;;;;;;5044431;28;20666;-61
2020/12/31 02:23:51;;;;;;;16.20;8.10;;;2.50;99.90;;;;;;5053399;28;20256;-60
2020/12/31 02:26:18;;;;;;;15.80;8.77;;;2.50;99.90;;;;;;5051099;28;20207;-61
2020/12/31 02:28:44;;;;;;;13.80;8.23;;;2.50;99.90;;;;;;5052124;28;20245;-61
2020/12/31 02:31:11;;;;;;;13.10;7.73;;;2.50;99.90;;;;;;5051864;28;20670;-60
2020/12/31 02:33:37;;;;;;;14.40;7.90;;;2.40;99.90;;;;;;5052419;28;20907;-59
2020/12/31 02:36:03;;;;;;;14.83;8.40;;;2.30;99.90;;;;;;5052698;28;20222;-61
2020/12/31 02:38:30;;;;;;;15.07;8.43;;;2.20;99.90;;;;;;5052668;28;20597;-61
2020/12/31 02:40:57;;;;;;;14.07;8.10;;;2.20;99.90;;;;;;5052916;28;20211;-61
2020/12/31 02:43:23;;;;;;;14.63;8.03;;;2.10;99.90;;;;;;5050306;28;20194;-61
2020/12/31 02:45:49;;;;;;;13.27;7.87;;;2.00;99.90;;;;;;5060185;28;20251;-61
2020/12/31 02:48:16;;;;;;;15.13;8.00;;;1.90;99.90;;;;;;5052981;28;20280;-61
2020/12/31 02:50:42;;;;;;;13.20;7.43;;;1.90;99.90;;;;;;5056478;28;20206;-60
2020/12/31 02:53:08;;;;;;;14.73;8.47;;;1.90;99.90;;;;;;5059470;28;20210;-59
2020/12/31 02:55:34;;;;;;;14.60;8.23;;;1.90;99.90;;;;;;5055287;28;20203;-61
2020/12/31 02:58:01;;;;;;;13.33;7.70;;;1.80;99.90;;;;;;5055328;28;20280;-60
2020/12/31 03:00:28;;;;;;;14.40;7.30;;;1.80;99.90;;;;;;5056785;28;20199;-61
2020/12/31 03:02:54;;;;;;;15.47;8.17;;;1.80;99.90;;;;;;5060838;28;20199;-61
2020/12/31 03:05:21;;;;;;;15.40;7.87;;;1.70;99.90;;;;;;5049082;28;20207;-59
2020/12/31 03:07:47;;;;;;;12.23;7.43;;;1.60;99.90;;;;;;5057771;28;20264;-59
2020/12/31 03:10:13;;;;;;;14.97;8.70;;;1.60;99.90;;;;;;5053920;28;20235;-61
2020/12/31 03:12:40;;;;;;;12.80;7.33;;;1.60;99.90;;;;;;5059077;28;20669;-60
2020/12/31 03:15:09;;;;;;;14.43;9.30;;;1.50;99.90;;;;;;5053998;28;20642;-58
2020/12/31 03:17:35;;;;;;;17.13;8.23;;;1.60;99.90;;;;;;5047418;28;20219;-60
2020/12/31 03:20:02;;;;;;;13.67;7.93;;;1.60;99.90;;;;;;5051746;28;20218;-58
2020/12/31 03:22:28;;;;;;;17.47;10.60;;;1.60;99.90;;;;;;5050117;28;20202;-59
2020/12/31 03:24:54;;;;;;;15.77;8.67;;;1.70;99.90;;;;;;5050874;28;20192;-61
2020/12/31 03:27:21;;;;;;;15.70;8.70;;;1.60;99.90;;;;;;5051969;28;20597;-60
2020/12/31 03:29:47;;;;;;;10.20;6.60;;;1.70;99.90;;;;;;5051895;28;20669;-60
2020/12/31 03:32:14;;;;;;;10.43;6.87;;;1.90;99.90;;;;;;5060936;28;20205;-60
2020/12/31 03:34:41;;;;;;;12.57;7.57;;;2.00;99.90;;;;;;5047725;28;20564;-59
2020/12/31 03:37:07;;;;;;;11.30;6.67;;;2.00;99.90;;;;;;5051720;28;20256;-61
2020/12/31 03:39:33;;;;;;;12.80;7.57;;;2.20;99.90;;;;;;5051494;28;20195;-61
2020/12/31 03:42:00;;;;;;;11.63;7.67;;;2.20;99.90;;;;;;5054933;28;20622;-60
2020/12/31 03:44:27;;;;;;;11.97;6.77;;;2.10;99.90;;;;;;5050820;28;20203;-60
2020/12/31 03:46:53;;;;;;;9.20;6.10;;;2.10;99.90;;;;;;5065316;28;20195;-61
2020/12/31 03:49:20;;;;;;;12.13;5.93;;;2.20;99.90;;;;;;5050075;28;20234;-60
2020/12/31 03:51:47;;;;;;;9.57;5.70;;;2.20;99.90;;;;;;5056193;28;20214;-62
2020/12/31 03:54:13;;;;;;;8.40;5.87;;;2.30;99.90;;;;;;5051021;28;20229;-61
2020/12/31 03:56:39;;;;;;;8.80;5.67;;;2.30;99.90;;;;;;5050798;28;20199;-58
2020/12/31 03:59:05;;;;;;;8.97;6.33;;;2.40;99.90;;;;;;5051049;28;20226;-60
2020/12/31 04:01:33;;;;;;;8.07;5.53;;;2.40;99.90;;;;;;5056011;28;20202;-60
2020/12/31 04:04:00;;;;;;;7.97;5.20;;;2.50;99.90;;;;;;5049132;28;20249;-60
2020/12/31 04:06:27;;;;;;;8.20;5.23;;;2.60;99.90;;;;;;5046205;28;20666;-61
2020/12/31 04:08:54;;;;;;;7.77;5.67;;;2.50;99.90;;;;;;5078756;22;20384;-56
2020/12/31 04:11:20;;;;;;;9.17;5.37;;;2.40;99.90;;;;;;5070313;28;20230;-55
2020/12/31 04:13:47;;;;;;;9.37;5.07;;;2.60;99.90;;;;;;5059154;28;20642;-56
2020/12/31 04:16:14;;;;;;;9.27;5.23;;;2.60;99.90;;;;;;5052815;28;20294;-52
2020/12/31 04:18:40;;;;;;;9.07;5.23;;;2.70;99.90;;;;;;5064542;28;20238;-57
2020/12/31 04:21:07;;;;;;;9.33;5.13;;;2.70;99.90;;;;;;5081685;28;20323;-56
2020/12/31 04:23:34;;;;;;;9.83;5.17;;;2.70;99.90;;;;;;5081511;28;20292;-57
2020/12/31 04:26:00;;;;;;;9.27;4.67;;;2.80;99.90;;;;;;5082406;28;20675;-56
2020/12/31 04:28:27;;;;;;;8.80;4.77;;;2.90;99.90;;;;;;5085908;28;20380;-57
2020/12/31 04:30:53;;;;;;;9.03;5.10;;;2.70;99.90;;;;;;5084262;28;20223;-55
2020/12/31 04:33:19;;;;;;;7.80;4.80;;;2.70;99.90;;;;;;5084525;28;20795;-58
2020/12/31 04:35:46;;;;;;;9.10;5.00;;;2.90;99.90;;;;;;5081969;28;20312;-57
2020/12/31 04:38:12;;;;;;;8.23;4.87;;;2.80;99.90;;;;;;5076433;28;20237;-56
2020/12/31 04:40:44;;;;;;;9.83;5.07;;;2.90;99.90;;;;;;5088735;28;20824;-54
2020/12/31 04:43:11;;;;;;;9.20;5.23;;;2.80;99.90;;;;;;5084544;28;20213;-57
2020/12/31 04:45:40;;;;;;;9.50;5.10;;;2.70;99.90;;;;;;5080088;28;20285;-54
2020/12/31 04:48:09;;;;;;;10.23;5.03;;;2.80;99.90;;;;;;5089349;28;20253;-56
2020/12/31 04:50:39;;;;;;;8.83;5.10;;;3.00;99.90;;;;;;5082523;28;20214;-55
2020/12/31 04:53:07;;;;;;;7.07;4.70;;;3.00;99.90;;;;;;5074007;28;20630;-54
2020/12/31 04:55:40;;;;;;;9.07;4.90;;;3.10;99.90;;;;;;5072009;28;20230;-58
2020/12/31 04:58:08;;;;;;;9.77;5.20;;;3.00;99.90;;;;;;5071005;28;20696;-52
2020/12/31 05:00:35;;;;;;;8.83;4.93;;;2.90;99.90;;;;;;5085863;28;20268;-57
2020/12/31 05:03:01;;;;;;;9.33;5.53;;;2.90;99.90;;;;;;5084583;28;20212;-56
2020/12/31 05:05:28;;;;;;;8.53;4.87;;;2.90;99.90;;;;;;5089167;28;20820;-56
2020/12/31 05:07:56;;;;;;;9.90;5.23;;;2.80;99.90;;;;;;5083952;28;20983;-55
2020/12/31 05:10:22;;;;;;;9.10;5.20;;;2.80;99.90;;;;;;5088571;28;20211;-54
2020/12/31 05:12:57;;;;;;;8.43;5.23;;;2.90;99.90;;;;;;5088670;28;20211;-56
2020/12/31 05:15:33;;;;;;;12.47;5.07;;;2.90;99.90;;;;;;5085904;28;20225;-56
2020/12/31 05:18:17;;;;;;;8.83;4.97;;;2.90;99.90;;;;;;5088094;28;20223;-56
2020/12/31 05:20:46;;;;;;;10.07;5.60;;;2.90;99.90;;;;;;5089019;28;20263;-58
2020/12/31 05:23:13;;;;;;;10.27;5.83;;;2.90;99.90;;;;;;5083413;28;20202;-57
2020/12/31 05:25:39;;;;;;;10.30;5.60;;;2.90;99.90;;;;;;5088451;28;20208;-54
2020/12/31 05:28:23;;;;;;;8.83;5.23;;;2.90;99.90;;;;;;5081976;28;20756;-56
2020/12/31 05:30:51;;;;;;;8.83;5.43;;;2.80;99.90;;;;;;5078171;28;20234;-58
2020/12/31 05:33:36;;;;;;;8.90;5.40;;;2.90;99.90;;;;;;5085993;28;20735;-57
2020/12/31 05:36:17;;;;;;;11.70;5.47;;;2.80;99.90;;;;;;5074930;28;20277;-56
2020/12/31 05:38:45;;;;;;;11.43;5.77;;;2.90;99.90;;;;;;5083277;28;20723;-56
2020/12/31 05:41:11;;;;;;;10.63;6.00;;;3.00;99.90;;;;;;5076173;28;20212;-55
2020/12/31 05:43:40;;;;;;;11.50;7.03;;;3.20;99.90;;;;;;5074159;28;20320;-54
2020/12/31 05:46:09;;;;;;;12.73;6.50;;;3.10;99.90;;;;;;5075477;28;20205;-58
2020/12/31 05:48:35;;;;;;;12.63;6.77;;;3.10;99.90;;;;;;5083577;28;20245;-57
2020/12/31 05:51:19;;;;;;;10.90;6.57;;;3.00;99.90;;;;;;5084179;28;20210;-57
2020/12/31 05:53:48;;;;;;;11.27;6.60;;;3.00;99.90;;;;;;5089735;28;20715;-57
2020/12/31 05:56:15;;;;;;;12.23;6.43;;;3.00;99.90;;;;;;5084742;28;20301;-54
2020/12/31 05:58:45;;;;;;;12.93;6.37;;;3.00;99.90;;;;;;5082091;28;20279;-56
2020/12/31 06:01:14;;;;;;;11.87;6.53;;;3.00;99.90;;;;;;5085115;28;20209;-55
2020/12/31 06:03:47;;;;;;;12.17;6.93;;;3.00;99.90;;;;;;5087131;28;20554;-57
2020/12/31 06:06:17;;;;;;;13.33;7.50;;;3.00;99.90;;;;;;5080177;28;20236;-56
2020/12/31 06:09:02;;;;;;;13.13;6.67;;;3.00;99.90;;;;;;5081398;28;20229;-58
2020/12/31 06:11:34;;;;;;;17.20;7.57;;;3.10;99.90;;;;;;5091857;28;20203;-58
2020/12/31 06:14:03;;;;;;;12.23;6.70;;;3.00;99.90;;;;;;5084071;28;20301;-57
2020/12/31 06:16:37;;;;;;;11.00;6.30;;;3.00;99.90;;;;;;5084479;28;20707;-53
2020/12/31 06:19:27;;;;;;;11.73;6.70;;;3.10;99.90;;;;;;5089447;28;20221;-55
2020/12/31 06:22:03;;;;;;;12.30;6.67;;;3.10;99.90;;;;;;5086868;28;20243;-57
2020/12/31 06:24:34;;;;;;;16.27;8.33;;;3.10;99.90;;;;;;5076250;28;20214;-58
2020/12/31 06:27:09;;;;;;;14.17;7.80;;;3.10;99.90;;;;;;5074086;28;20284;-53
2020/12/31 06:29:44;;;;;;;14.97;7.07;;;3.10;99.90;;;;;;5077435;28;20221;-58
2020/12/31 06:32:17;;;;;;;16.13;8.10;;;3.20;99.90;;;;;;5080429;28;20259;-55
2020/12/31 06:34:43;;;;;;;15.17;8.03;;;3.20;99.90;;;;;;5089156;28;20312;-55
2020/12/31 06:37:10;;;;;;;12.97;7.77;;;3.20;99.90;;;;;;5077786;28;20290;-57
2020/12/31 06:39:37;;;;;;;14.03;7.70;;;3.20;99.90;;;;;;5085997;28;20668;-54
2020/12/31 06:42:04;;;;;;;15.50;7.90;;;3.20;99.90;;;;;;5072618;28;20698;-56
2020/12/31 06:44:31;;;;;;;14.30;7.63;;;3.10;99.90;;;;;;5086800;28;20573;-57
2020/12/31 06:46:58;;;;;;;17.87;8.30;;;3.20;99.90;;;;;;5090662;28;20205;-54
2020/12/31 06:49:51;;;;;;;14.23;7.93;;;3.20;99.90;;;;;;5083248;28;20308;-54
2020/12/31 06:52:19;;;;;;;11.33;7.13;;;3.10;99.90;;;;;;5088076;28;20725;-57
2020/12/31 06:54:46;;;;;;;13.47;7.40;;;3.20;99.90;;;;;;5087544;28;20883;-50
2020/12/31 06:57:12;;;;;;;15.10;7.17;;;3.10;99.90;;;;;;5087585;28;20236;-57
2020/12/31 06:59:44;;;;;;;11.93;7.10;;;3.20;99.90;;;;;;5086493;28;20294;-56
2020/12/31 07:02:22;;;;;;;13.13;7.17;;;3.30;99.90;;;;;;5079596;28;20556;-56
2020/12/31 07:04:49;;;;;;;13.20;7.20;;;3.20;99.90;;;;;;5088297;28;20216;-58
2020/12/31 07:07:25;;;;;;;13.43;7.07;;;3.20;99.90;;;;;;5076469;28;20302;-57
2020/12/31 07:09:54;;;;;;;10.53;6.73;;;3.10;99.90;;;;;;5082716;28;20198;-57
2020/12/31 07:12:33;;;;;;;11.60;6.57;;;3.00;99.90;;;;;;5073590;28;20201;-56
2020/12/31 07:15:00;;;;;;;11.73;7.03;;;3.00;99.90;;;;;;5073521;28;20222;-54
2020/12/31 07:17:33;;;;;;;14.40;8.20;;;3.00;99.90;;;;;;5072893;28;20273;-56
2020/12/31 07:20:01;;;;;;;14.50;7.13;;;3.10;99.90;;;;;;5074725;28;20214;-54
2020/12/31 07:22:29;;;;;;;11.77;7.20;;;3.10;99.90;;;;;;5072559;28;20293;-58
2020/12/31 07:25:02;;;;;;;14.93;8.30;;;3.10;99.90;;;;;;5085611;28;20195;-58
2020/12/31 07:27:30;;;;;;;14.23;8.30;;;3.00;99.90;;;;;;5074782;28;20984;-54
2020/12/31 07:30:03;;;;;;;15.97;8.40;;;3.00;99.90;;;;;;5086070;28;20247;-60
2020/12/31 07:32:49;;;;;;;14.50;8.30;;;3.10;99.90;;;;;;5075845;28;20222;-58
2020/12/31 07:35:21;;;;;;;13.67;8.33;;;3.10;99.90;;;;;;5088140;28;20253;-55
2020/12/31 07:37:51;;;;;;;14.30;8.50;;;3.10;99.90;;;;;;5083913;28;20300;-57
2020/12/31 07:40:30;;;;;;;15.73;9.20;;;3.30;99.90;;;;;;5081599;28;20280;-57
2020/12/31 07:42:57;;;;;;;16.23;9.17;;;3.30;99.90;;;;;;5089393;28;20229;-57
2020/12/31 07:45:23;;;;;;;14.23;8.33;;;3.20;99.90;;;;;;5077924;28;20209;-55
2020/12/31 07:47:50;;;;;;;13.30;7.67;;;3.30;99.90;;;;;;5080007;28;20218;-54
2020/12/31 07:50:17;;;;;;;15.00;8.87;;;3.20;99.90;;;;;;5086396;28;20592;-56
2020/12/31 07:52:44;;;;;;;16.10;8.77;;;3.20;99.90;;;;;;5082582;28;20684;-55
2020/12/31 07:55:11;;;;;;;12.97;7.87;;;3.20;99.90;;;;;;5086683;28;20308;-54
2020/12/31 07:57:38;;;;;;;14.17;8.17;;;3.30;99.90;;;;;;5087035;28;20253;-58
2020/12/31 08:00:06;;;;;;;16.37;9.03;;;3.30;99.90;;;;;;5087177;28;20213;-55
2020/12/31 08:02:32;;;;;;;15.77;9.17;;;3.40;99.90;;;;;;5085204;28;20750;-54
2020/12/31 08:04:59;;;;;;;18.13;9.37;;;3.40;99.90;;;;;;5083427;28;20280;-54
2020/12/31 08:07:25;;;;;;;14.37;8.73;;;3.40;99.90;;;;;;5089623;28;20703;-55
2020/12/31 08:09:53;;;;;;;15.40;8.77;;;3.40;99.90;;;;;;5091261;28;20250;-57
2020/12/31 08:12:19;;;;;;;16.23;9.00;;;3.50;99.90;;;;;;5086272;28;20669;-55
2020/12/31 08:14:47;;;;;;;15.33;9.07;;;3.50;99.90;;;;;;5082555;28;20268;-58
2020/12/31 08:17:13;;;;;;;14.43;9.00;;;3.50;99.90;;;;;;5076189;28;20702;-58
2020/12/31 08:19:41;;;;;;;15.93;8.90;;;3.50;99.90;;;;;;5084835;28;20612;-58
2020/12/31 08:22:23;;;;;;;13.77;8.70;;;3.60;99.90;;;;;;5080959;28;20583;-56
2020/12/31 08:25:00;;;;;;;14.93;8.90;;;3.60;99.90;;;;;;5079434;28;20736;-58
2020/12/31 08:27:29;;;;;;;16.73;9.93;;;3.70;99.90;;;;;;5081076;28;20667;-56
2020/12/31 08:29:57;;;;;;;16.00;9.43;;;3.70;99.90;;;;;;5083148;28;20294;-56
2020/12/31 08:32:26;;;;;;;15.50;9.00;;;3.70;99.90;;;;;;5084568;28;20887;-56
2020/12/31 08:34:57;;;;;;;16.37;8.90;;;3.70;99.90;;;;;;5085276;28;20360;-57
2020/12/31 08:37:26;;;;;;;16.17;9.40;;;3.80;99.90;;;;;;5075675;28;20668;-58
2020/12/31 08:39:54;;;;;;;15.77;9.20;;;3.80;99.90;;;;;;5076113;28;20283;-58
2020/12/31 08:42:23;;;;;;;16.87;9.07;;;3.80;99.90;;;;;;5081360;28;20282;-56
2020/12/31 08:44:53;;;;;;;16.30;9.67;;;3.80;99.90;;;;;;5076144;28;20206;-59
2020/12/31 08:47:24;;;;;;;14.53;8.63;;;3.80;99.90;;;;;;5080746;28;20285;-57
2020/12/31 08:49:52;;;;;;;14.63;8.83;;;3.80;99.90;;;;;;5085891;28;20305;-57
2020/12/31 08:52:18;;;;;;;15.27;9.17;;;3.80;99.90;;;;;;5071010;28;20240;-56
2020/12/31 08:54:45;;;;;;;14.37;8.43;;;3.90;99.90;;;;;;5073627;28;20582;-57
2020/12/31 08:57:15;;;;;;;14.47;8.70;;;3.90;99.90;;;;;;5076228;28;20220;-57
2020/12/31 08:59:43;;;;;;;14.80;8.53;;;3.90;99.90;;;;;;5075010;28;20216;-56
2020/12/31 09:02:12;;;;;;;15.87;8.93;;;3.90;99.90;;;;;;5081297;28;20649;-57
2020/12/31 09:04:39;;;;;;;15.33;9.23;;;3.90;99.90;;;;;;5077641;28;20531;-59
2020/12/31 09:07:11;;;;;;;15.27;9.70;;;4.00;99.90;;;;;;5081210;28;20220;-59
2020/12/31 09:09:37;;;;;;;16.17;9.27;;;4.00;99.90;;;;;;5074539;28;20202;-59
2020/12/31 09:12:06;;;;;;;16.23;9.57;;;4.00;99.90;;;;;;5081796;28;20206;-57
2020/12/31 09:14:34;;;;;;;14.70;8.93;;;4.10;99.90;;;;;;5077009;28;20218;-60
2020/12/31 09:17:19;;;;;;;13.37;8.70;;;4.00;99.90;;;;;;5078507;28;20289;-59
2020/12/31 09:19:50;;;;;;;15.20;8.97;;;4.10;99.90;;;;;;5078885;28;20289;-56
2020/12/31 09:22:16;;;;;;;15.93;9.57;;;4.10;99.90;;;;;;5081772;28;20236;-58
2020/12/31 09:24:43;;;;;;;15.93;8.97;;;4.10;99.90;;;;;;5081229;28;20292;-58
2020/12/31 09:27:09;;;;;;;15.37;9.20;;;4.10;99.90;;;;;;5080996;28;20285;-56
2020/12/31 09:29:35;;;;;;;14.80;8.90;;;4.20;99.90;;;;;;5069815;28;20631;-59
2020/12/31 09:32:03;;;;;;;13.67;8.97;;;4.20;99.90;;;;;;5071690;28;20210;-59
2020/12/31 09:34:29;;;;;;;15.47;8.90;;;4.20;99.90;;;;;;5071993;28;20221;-59
2020/12/31 09:36:59;;;;;;;15.53;9.27;;;4.30;99.90;;;;;;5075853;28;20225;-58
2020/12/31 09:39:26;;;;;;;17.40;10.10;;;4.30;99.90;;;;;;5070120;28;20573;-57
2020/12/31 09:41:52;;;;;;;14.97;8.70;;;4.40;99.90;;;;;;5072949;28;20711;-59
2020/12/31 09:44:19;;;;;;;14.83;8.93;;;4.30;99.90;;;;;;5069719;28;20635;-58
2020/12/31 09:46:46;;;;;;;15.07;9.10;;;4.30;99.90;;;;;;5072982;28;21383;-57
2020/12/31 09:49:14;;;;;;;14.20;8.07;;;4.40;99.90;;;;;;5077460;28;20220;-58
2020/12/31 09:51:40;;;;;;;15.27;8.57;;;4.50;99.90;;;;;;5074307;28;20303;-58
2020/12/31 09:54:06;;;;;;;15.90;8.87;;;4.40;99.90;;;;;;5090950;28;20616;-60
2020/12/31 09:56:33;;;;;;;13.97;8.63;;;4.50;99.90;;;;;;5083877;28;20193;-58
2020/12/31 09:58:59;;;;;;;14.03;8.37;;;4.50;99.90;;;;;;5091350;28;20297;-58
2020/12/31 10:01:26;;;;;;;16.13;9.20;;;4.50;99.90;;;;;;5092480;28;20209;-56
2020/12/31 10:03:52;;;;;;;18.40;9.37;;;4.60;99.90;;;;;;5081172;28;20568;-59
2020/12/31 10:06:20;;;;;;;13.23;7.57;;;4.60;99.90;;;;;;5088656;28;20222;-59
2020/12/31 10:08:47;;;;;;;14.53;7.60;;;4.60;99.90;;;;;;5089701;28;20306;-59
2020/12/31 10:11:14;;;;;;;16.43;8.40;;;4.70;99.90;;;;;;5127626;22;20197;-60
2020/12/31 10:13:40;;;;;;;14.30;8.23;;;4.70;99.90;;;;;;5071812;28;20313;-59
2020/12/31 10:16:06;;;;;;;12.53;7.60;;;4.70;99.90;;;;;;5076525;28;20201;-61
2020/12/31 10:18:33;;;;;;;14.53;7.90;;;4.70;99.90;;;;;;5076084;28;20293;-61
2020/12/31 10:20:59;;;;;;;11.50;7.10;;;4.70;99.90;;;;;;5072880;28;20212;-61
2020/12/31 10:23:26;;;;;;;14.40;7.43;;;4.70;99.90;;;;;;5070479;28;20259;-61
2020/12/31 10:25:53;;;;;;;11.83;7.27;;;4.70;99.90;;;;;;5068610;28;20202;-62
2020/12/31 10:28:20;;;;;;;12.90;7.20;;;4.70;99.90;;;;;;5072449;28;20236;-60
2020/12/31 10:30:47;;;;;;;12.10;7.10;;;4.70;99.90;;;;;;5072289;28;20226;-61
2020/12/31 10:33:13;;;;;;;12.70;7.30;;;4.60;99.90;;;;;;5065286;28;20254;-61
2020/12/31 10:35:39;;;;;;;10.57;6.47;;;4.70;99.90;;;;;;5066982;28;20318;-61
2020/12/31 10:38:06;;;;;;;13.40;7.73;;;4.70;99.90;;;;;;5071073;28;20213;-61
2020/12/31 10:40:33;;;;;;;13.13;7.47;;;4.80;99.90;;;;;;5071713;28;20297;-61
2020/12/31 10:43:00;;;;;;;11.27;6.33;;;4.70;99.90;;;;;;5070738;28;20226;-61
2020/12/31 10:45:26;;;;;;;10.90;6.60;;;4.80;99.90;;;;;;5072952;28;20241;-61
2020/12/31 10:47:52;;;;;;;10.17;6.30;;;4.80;99.90;;;;;;5072169;28;20606;-61
2020/12/31 10:50:19;;;;;;;11.43;6.47;;;4.70;99.90;;;;;;5073261;28;20249;-61
2020/12/31 10:52:46;;;;;;;11.70;7.03;;;4.80;99.90;;;;;;5072690;28;20231;-61
2020/12/31 10:55:12;;;;;;;11.33;6.23;;;4.90;99.90;;;;;;5072092;28;20783;-61
2020/12/31 10:57:39;;;;;;;9.07;5.87;;;4.90;99.90;;;;;;5072700;28;20279;-61
2020/12/31 11:00:06;;;;;;;10.27;6.20;;;5.00;99.90;;;;;;5071970;28;20282;-62
2020/12/31 11:02:32;;;;;;;8.90;5.67;;;5.00;99.90;;;;;;5071155;28;20234;-61
2020/12/31 11:04:58;;;;;;;10.80;6.03;;;5.10;99.90;;;;;;5071667;28;20344;-59
2020/12/31 11:07:25;;;;;;;9.63;5.97;;;5.10;99.90;;;;;;5071875;28;20613;-61
2020/12/31 11:09:51;;;;;;;9.73;5.67;;;5.10;99.90;;;;;;5067852;28;20748;-61
2020/12/31 11:12:17;;;;;;;9.20;5.50;;;5.20;99.90;;;;;;5068967;28;20325;-62
2020/12/31 11:14:45;;;;;;;9.33;5.33;;;5.20;99.90;;;;;;5068591;28;20310;-56
2020/12/31 11:17:11;;;;;;;9.23;6.00;;;5.20;99.90;;;;;;5070966;28;20214;-61
2020/12/31 11:19:37;;;;;;;10.73;5.53;;;5.20;99.90;;;;;;5074775;28;20266;-61
2020/12/31 11:22:05;;;;;;;10.53;5.63;;;5.20;99.90;;;;;;5092581;28;20308;-61
2020/12/31 11:24:31;;;;;;;9.07;5.07;;;5.20;99.90;;;;;;5073823;28;20226;-61
2020/12/31 11:26:58;;;;;;;6.90;4.60;;;5.10;99.90;;;;;;5076800;28;20214;-61
2020/12/31 11:29:24;;;;;;;8.73;5.30;;;5.10;99.90;;;;;;5079402;28;20237;-61
2020/12/31 11:31:51;;;;;;;10.00;5.10;;;5.10;99.90;;;;;;5086144;28;20719;-60
2020/12/31 11:34:18;;;;;;;7.57;4.70;;;5.20;99.90;;;;;;5067170;28;20230;-62
2020/12/31 11:36:44;;;;;;;9.93;5.00;;;5.20;99.90;;;;;;5066348;28;20289;-61
2020/12/31 11:39:10;;;;;;;7.70;5.00;;;5.10;99.90;;;;;;5066365;28;20297;-60
2020/12/31 11:41:37;;;;;;;8.13;5.00;;;5.20;99.90;;;;;;5068717;28;20653;-61
2020/12/31 11:44:03;;;;;;;8.73;4.60;;;5.20;99.90;;;;;;5064984;28;20206;-58
2020/12/31 11:46:30;;;;;;;7.83;4.27;;;5.30;99.90;;;;;;5068713;28;20724;-61
2020/12/31 11:48:57;;;;;;;8.20;4.90;;;5.30;99.90;;;;;;5065699;28;20285;-61
2020/12/31 11:51:23;;;;;;;7.83;4.93;;;5.30;99.90;;;;;;5058758;28;20770;-61
2020/12/31 11:53:50;;;;;;;8.37;4.83;;;5.30;99.90;;;;;;5066498;28;20313;-61
2020/12/31 11:56:16;;;;;;;6.87;4.57;;;5.30;99.90;;;;;;5070689;28;20246;-61
2020/12/31 11:58:42;;;;;;;7.17;4.77;;;5.30;99.90;;;;;;5070373;28;20285;-61
2020/12/31 12:01:09;;;;;;;7.60;4.03;;;5.40;99.90;;;;;;5070885;28;20225;-61
2020/12/31 12:03:36;;;;;;;8.03;4.50;;;5.30;99.90;;;;;;5068705;28;20206;-61
2020/12/31 12:06:03;;;;;;;8.87;5.07;;;5.30;99.90;;;;;;5070892;28;20287;-61
2020/12/31 12:08:30;;;;;;;8.27;4.53;;;5.30;99.90;;;;;;5069724;28;20282;-61
2020/12/31 12:10:56;;;;;;;8.10;4.70;;;5.30;99.90;;;;;;5069036;28;20490;-61
2020/12/31 12:13:23;;;;;;;8.30;4.70;;;5.30;99.90;;;;;;5069240;28;20309;-60
2020/12/31 12:15:50;;;;;;;7.73;4.20;;;5.40;99.90;;;;;;5069495;28;20241;-61
2020/12/31 12:18:16;;;;;;;7.57;5.10;;;5.40;99.90;;;;;;5068005;28;20281;-61
2020/12/31 12:20:43;;;;;;;7.37;4.50;;;5.40;99.90;;;;;;5069525;28;20639;-61
2020/12/31 12:23:10;;;;;;;7.80;4.77;;;5.30;99.90;;;;;;5069312;28;20236;-61
2020/12/31 12:25:36;;;;;;;9.10;4.43;;;5.40;99.90;;;;;;5069189;28;20748;-60
2020/12/31 12:28:03;;;;;;;7.80;4.57;;;5.40;99.90;;;;;;5069384;28;20326;-60
2020/12/31 12:30:29;;;;;;;7.23;4.40;;;5.40;99.90;;;;;;5067751;28;20267;-57
2020/12/31 12:32:56;;;;;;;8.93;5.00;;;5.40;99.90;;;;;;5071377;28;20225;-59
2020/12/31 12:35:22;;;;;;;7.10;4.47;;;5.40;99.90;;;;;;5059839;28;20221;-60
2020/12/31 12:37:49;;;;;;;6.73;4.03;;;5.40;99.90;;;;;;5062044;28;20674;-57
2020/12/31 12:40:16;;;;;;;6.47;4.30;;;5.40;99.90;;;;;;5064522;28;20202;-60
2020/12/31 12:42:42;;;;;;;5.67;3.80;;;5.40;99.90;;;;;;5066624;28;20688;-62
2020/12/31 12:45:10;;;;;;;6.60;3.83;;;5.40;99.90;;;;;;5066977;28;20665;-60
2020/12/31 12:47:37;;;;;;;5.83;4.00;;;5.40;99.90;;;;;;5064587;28;20198;-60
2020/12/31 12:50:05;;;;;;;5.97;3.90;;;5.40;99.90;;;;;;5065958;28;20277;-62
2020/12/31 12:52:32;;;;;;;5.43;3.80;;;5.50;99.90;;;;;;5068833;28;20218;-61